Colorado City, Arizona
Current Conditions -  °F | °C
As of 3:15 AM on Tuesday 21 Oct 2014 (Local Time) from KAZC Reporting Station
Scattered Clouds Scattered Clouds  
Wind Chill: 50°   Ceiling: Unl
Heat Index: 50°   Visibility: 10mi
Dew Point: 40°   Wind: 3mph
Humidity: 68%   Direction: 150°SSE
Pressure: 30.05"   Gusts: NA
Location:  36.99°N, 112.98°W
Report Text: KAZC 211015Z AUTO 15003KT 10SM SCT095 10/04 A3005 RMK AO2 T00990043
Loading
Personal Weather Stations






























Interactive Weather Map
Tropical Storm Tracking
New forecast layout! Learn more

10-Day Weather Forecast

Advertisements
Track Severe Weather on mobile